sensor_id;sensor_type;location;lat;lon;timestamp;P1;durP1;ratioP1;P2;durP2;ratioP2
9228;SDS011;4649;42.644;23.284;2023-07-24T00:01:46;13.63;;;7.50;;
9228;SDS011;4649;42.644;23.284;2023-07-24T00:05:06;8.07;;;7.30;;
9228;SDS011;4649;42.644;23.284;2023-07-24T00:23:42;7.80;;;7.13;;
9228;SDS011;4649;42.644;23.284;2023-07-24T00:26:31;8.47;;;7.67;;
9228;SDS011;4649;42.644;23.284;2023-07-24T00:29:18;8.20;;;7.60;;
9228;SDS011;4649;42.644;23.284;2023-07-24T00:32:23;9.73;;;8.17;;
9228;SDS011;4649;42.644;23.284;2023-07-24T00:35:25;9.23;;;7.57;;
9228;SDS011;4649;42.644;23.284;2023-07-24T01:01:12;9.67;;;8.63;;
9228;SDS011;4649;42.644;23.284;2023-07-24T01:04:20;10.77;;;9.77;;
9228;SDS011;4649;42.644;23.284;2023-07-24T01:07:07;9.93;;;8.70;;
9228;SDS011;4649;42.644;23.284;2023-07-24T01:09:48;9.93;;;9.17;;
9228;SDS011;4649;42.644;23.284;2023-07-24T01:12:20;10.43;;;8.97;;
9228;SDS011;4649;42.644;23.284;2023-07-24T01:15:03;10.90;;;9.80;;
9228;SDS011;4649;42.644;23.284;2023-07-24T01:20:55;17.87;;;9.60;;
9228;SDS011;4649;42.644;23.284;2023-07-24T01:23:43;9.70;;;8.83;;
9228;SDS011;4649;42.644;23.284;2023-07-24T01:26:23;11.50;;;10.33;;
9228;SDS011;4649;42.644;23.284;2023-07-24T01:28:55;12.30;;;10.97;;
9228;SDS011;4649;42.644;23.284;2023-07-24T01:31:38;11.83;;;9.67;;
9228;SDS011;4649;42.644;23.284;2023-07-24T01:34:20;10.83;;;9.80;;
9228;SDS011;4649;42.644;23.284;2023-07-24T01:36:55;12.73;;;11.50;;
9228;SDS011;4649;42.644;23.284;2023-07-24T01:39:29;12.90;;;11.60;;
9228;SDS011;4649;42.644;23.284;2023-07-24T01:44:59;13.10;;;11.73;;
9228;SDS011;4649;42.644;23.284;2023-07-24T01:47:28;13.50;;;11.50;;
9228;SDS011;4649;42.644;23.284;2023-07-24T01:50:00;12.73;;;11.17;;
9228;SDS011;4649;42.644;23.284;2023-07-24T01:52:36;13.37;;;11.67;;
9228;SDS011;4649;42.644;23.284;2023-07-24T01:55:08;11.00;;;10.00;;
9228;SDS011;4649;42.644;23.284;2023-07-24T01:57:37;11.83;;;10.83;;
9228;SDS011;4649;42.644;23.284;2023-07-24T02:00:10;12.77;;;11.30;;
9228;SDS011;4649;42.644;23.284;2023-07-24T02:02:40;12.13;;;10.87;;
9228;SDS011;4649;42.644;23.284;2023-07-24T02:05:09;11.63;;;10.53;;
9228;SDS011;4649;42.644;23.284;2023-07-24T02:07:40;14.37;;;11.67;;
9228;SDS011;4649;42.644;23.284;2023-07-24T02:10:09;13.10;;;11.73;;
9228;SDS011;4649;42.644;23.284;2023-07-24T02:12:41;13.47;;;12.07;;
9228;SDS011;4649;42.644;23.284;2023-07-24T02:15:16;12.80;;;10.13;;
9228;SDS011;4649;42.644;23.284;2023-07-24T02:17:58;11.97;;;10.87;;
9228;SDS011;4649;42.644;23.284;2023-07-24T02:20:37;11.17;;;10.07;;
9228;SDS011;4649;42.644;23.284;2023-07-24T02:23:18;11.97;;;10.63;;
9228;SDS011;4649;42.644;23.284;2023-07-24T02:25:53;12.43;;;11.07;;
9228;SDS011;4649;42.644;23.284;2023-07-24T02:31:16;11.90;;;10.67;;
9228;SDS011;4649;42.644;23.284;2023-07-24T02:33:45;12.17;;;10.90;;
9228;SDS011;4649;42.644;23.284;2023-07-24T02:36:27;12.40;;;11.10;;
9228;SDS011;4649;42.644;23.284;2023-07-24T02:38:57;11.00;;;9.90;;
9228;SDS011;4649;42.644;23.284;2023-07-24T02:41:33;12.70;;;11.57;;
9228;SDS011;4649;42.644;23.284;2023-07-24T02:44:05;12.50;;;11.20;;
9228;SDS011;4649;42.644;23.284;2023-07-24T02:46:33;13.07;;;11.80;;
9228;SDS011;4649;42.644;23.284;2023-07-24T02:49:03;12.97;;;11.17;;
9228;SDS011;4649;42.644;23.284;2023-07-24T02:51:46;14.00;;;11.37;;
9228;SDS011;4649;42.644;23.284;2023-07-24T02:54:26;13.63;;;11.13;;
9228;SDS011;4649;42.644;23.284;2023-07-24T02:57:03;13.30;;;11.37;;
9228;SDS011;4649;42.644;23.284;2023-07-24T02:59:42;13.97;;;11.73;;
9228;SDS011;4649;42.644;23.284;2023-07-24T03:02:19;12.63;;;11.33;;
9228;SDS011;4649;42.644;23.284;2023-07-24T03:04:47;15.33;;;12.20;;
9228;SDS011;4649;42.644;23.284;2023-07-24T03:07:17;15.17;;;12.40;;
9228;SDS011;4649;42.644;23.284;2023-07-24T03:09:50;13.10;;;11.47;;
9228;SDS011;4649;42.644;23.284;2023-07-24T03:12:29;11.93;;;10.83;;
9228;SDS011;4649;42.644;23.284;2023-07-24T03:15:07;16.07;;;11.33;;
9228;SDS011;4649;42.644;23.284;2023-07-24T03:17:43;13.73;;;11.03;;
9228;SDS011;4649;42.644;23.284;2023-07-24T03:20:17;17.07;;;11.97;;
9228;SDS011;4649;42.644;23.284;2023-07-24T03:23:01;14.47;;;12.13;;
9228;SDS011;4649;42.644;23.284;2023-07-24T03:25:44;25.23;;;12.10;;
9228;SDS011;4649;42.644;23.284;2023-07-24T03:28:24;17.17;;;11.13;;
9228;SDS011;4649;42.644;23.284;2023-07-24T03:31:10;16.13;;;12.77;;
9228;SDS011;4649;42.644;23.284;2023-07-24T03:34:24;15.63;;;12.00;;
9228;SDS011;4649;42.644;23.284;2023-07-24T03:37:02;14.57;;;10.47;;
9228;SDS011;4649;42.644;23.284;2023-07-24T03:39:34;11.30;;;10.20;;
9228;SDS011;4649;42.644;23.284;2023-07-24T03:42:04;13.10;;;10.87;;
9228;SDS011;4649;42.644;23.284;2023-07-24T03:44:37;14.30;;;10.97;;
9228;SDS011;4649;42.644;23.284;2023-07-24T03:47:12;12.60;;;11.13;;
9228;SDS011;4649;42.644;23.284;2023-07-24T03:49:41;14.20;;;11.13;;
9228;SDS011;4649;42.644;23.284;2023-07-24T03:52:08;12.40;;;10.43;;
9228;SDS011;4649;42.644;23.284;2023-07-24T03:54:54;13.87;;;10.63;;
9228;SDS011;4649;42.644;23.284;2023-07-24T03:57:23;16.80;;;9.73;;
9228;SDS011;4649;42.644;23.284;2023-07-24T03:59:50;14.20;;;10.67;;
9228;SDS011;4649;42.644;23.284;2023-07-24T04:02:18;11.83;;;10.70;;
9228;SDS011;4649;42.644;23.284;2023-07-24T04:04:48;13.23;;;11.00;;
9228;SDS011;4649;42.644;23.284;2023-07-24T04:07:17;13.17;;;10.17;;
9228;SDS011;4649;42.644;23.284;2023-07-24T04:09:45;11.13;;;9.97;;
9228;SDS011;4649;42.644;23.284;2023-07-24T04:12:12;12.83;;;10.40;;
9228;SDS011;4649;42.644;23.284;2023-07-24T04:14:41;12.63;;;10.67;;
9228;SDS011;4649;42.644;23.284;2023-07-24T04:17:10;10.93;;;10.03;;
9228;SDS011;4649;42.644;23.284;2023-07-24T04:19:41;13.60;;;10.87;;
9228;SDS011;4649;42.644;23.284;2023-07-24T04:28:46;10.43;;;9.37;;
9228;SDS011;4649;42.644;23.284;2023-07-24T04:31:21;10.13;;;9.03;;
9228;SDS011;4649;42.644;23.284;2023-07-24T04:34:04;9.97;;;8.87;;
9228;SDS011;4649;42.644;23.284;2023-07-24T04:37:18;12.37;;;10.03;;
9228;SDS011;4649;42.644;23.284;2023-07-24T13:49:12;6.95;;;6.35;;
9228;SDS011;4649;42.644;23.284;2023-07-24T15:28:56;9.35;;;8.55;;
9228;SDS011;4649;42.644;23.284;2023-07-24T15:31:32;9.80;;;8.68;;
9228;SDS011;4649;42.644;23.284;2023-07-24T15:34:43;7.57;;;7.07;;
9228;SDS011;4649;42.644;23.284;2023-07-24T15:37:48;9.68;;;7.97;;
9228;SDS011;4649;42.644;23.284;2023-07-24T15:47:46;10.77;;;8.75;;
9228;SDS011;4649;42.644;23.284;2023-07-24T15:59:55;9.20;;;8.25;;
9228;SDS011;4649;42.644;23.284;2023-07-24T16:11:34;16.20;;;12.32;;
9228;SDS011;4649;42.644;23.284;2023-07-24T16:14:12;9.82;;;9.02;;
9228;SDS011;4649;42.644;23.284;2023-07-24T16:40:34;31.58;;;9.13;;
9228;SDS011;4649;42.644;23.284;2023-07-24T16:43:48;9.27;;;8.50;;
9228;SDS011;4649;42.644;23.284;2023-07-24T16:46:53;12.15;;;8.77;;
9228;SDS011;4649;42.644;23.284;2023-07-24T16:49:32;10.95;;;8.80;;
9228;SDS011;4649;42.644;23.284;2023-07-24T16:56:10;11.30;;;8.93;;
9228;SDS011;4649;42.644;23.284;2023-07-24T17:52:10;13.77;;;9.50;;
9228;SDS011;4649;42.644;23.284;2023-07-24T18:20:17;12.53;;;8.10;;
9228;SDS011;4649;42.644;23.284;2023-07-24T18:22:43;9.57;;;8.50;;
9228;SDS011;4649;42.644;23.284;2023-07-24T18:25:11;10.03;;;8.40;;
9228;SDS011;4649;42.644;23.284;2023-07-24T19:34:49;7.30;;;6.60;;
9228;SDS011;4649;42.644;23.284;2023-07-24T19:52:08;7.83;;;7.13;;
